Stanley, ND

7:29 AM CDT on October 24, 2017 (GMT -0500)
Stanley

Weather History for K08D - November, 2013

Change the Weather History Date:

Friday, November 8, 2013

  Actual Average (KMIB) Record (KMIB)
Temperature  
Mean Temperature 38 °F -  
Max Temperature 44 °F 36 °F 69 °F (1999)
Min Temperature 32 °F 18 °F 2 °F (2008)
Degree Days  
Heating Degree Days 26    
Moisture  
Dew Point 34 °F    
Average Humidity 90    
Maximum Humidity 100    
Minimum Humidity 65    
Precipitation  
Precipitation 0.00 in - - ()
Sea Level Pressure  
Sea Level Pressure 29.64 in    
Wind  
Wind Speed 13 mph (WSW)    
Max Wind Speed 23 mph    
Max Gust Speed 36 mph    
Visibility 10 miles    
Events Rain    
Averages and records for this station are not official NWS values.
T = Trace of Precipitation, MM = Missing Value Source: NWS Daily Summary

Daily Weather History Graph

Daily Weather History Graph

Search for Another Location

Airport or City:

Trip Planner

Search our weather history database for the weather conditions in past years. The results will help you decide how hot, cold, wet, or windy it might be!

Date:

Astronomy

Nov. 08, 2013 Rise Set
Actual Time 7:46 AM CST 5:19 PM CST
Civil Twilight 7:13 AM CST 5:52 PM CST
Nautical Twilight 6:35 AM CST 6:30 PM CST
Astronomical Twilight 5:59 AM CST 7:06 PM CST
Moon 12:44 PM CST (11/8) 10:44 PM CST (11/8)
Length of Visible Light 10h 39m
Length of Day
9h 32m
Waxing Crescent, 33% of the Moon is Illuminated
Nov 8
Waxing Crescent
Nov 9
First Quarter
Nov 17
Full
Nov 25
Last Quarter
Dec 2
New

Hourly Weather History & Observations

Time (CST) Temp. Windchill Dew Point Humidity Pressure Visibility Wind Dir Wind Speed Gust Speed Precip Events Conditions
12:15 AM 33.8 °F 25.8 °F 24.8 °F 70% 29.88 in 10.0 mi SE 10.4 mph - N/A   Overcast
12:35 AM 35.6 °F 25.9 °F 24.8 °F 65% 29.86 in 10.0 mi SSE 16.1 mph - N/A   Overcast
12:55 AM 35.6 °F 27.5 °F 24.8 °F 65% 29.85 in 10.0 mi SSE 11.5 mph 16.1 mph N/A   Overcast
1:15 AM 35.6 °F 26.6 °F 24.8 °F 65% 29.83 in 10.0 mi SE 13.8 mph 20.7 mph N/A   Overcast
1:35 AM 35.6 °F 26.6 °F 24.8 °F 65% 29.81 in 10.0 mi SE 13.8 mph 20.7 mph N/A   Overcast
1:55 AM 35.6 °F 27.5 °F 24.8 °F 65% 29.79 in 10.0 mi SE 11.5 mph 16.1 mph N/A   Overcast
2:15 AM 35.6 °F 26.2 °F 24.8 °F 65% 29.77 in 10.0 mi SE 15.0 mph - N/A   Overcast
2:35 AM 35.6 °F 26.2 °F 28.4 °F 75% 29.74 in 10.0 mi SE 15.0 mph - N/A Rain Light Rain
2:55 AM 35.6 °F 26.2 °F 28.4 °F 75% 29.73 in 10.0 mi SE 15.0 mph 20.7 mph N/A   Overcast
3:15 AM 35.6 °F 26.2 °F 28.4 °F 75% 29.72 in 10.0 mi SE 15.0 mph - N/A   Overcast
3:35 AM 35.6 °F 25.9 °F 28.4 °F 75% 29.70 in 10.0 mi SE 16.1 mph - N/A   Mostly Cloudy
3:55 AM 35.6 °F 26.2 °F 30.2 °F 81% 29.70 in 10.0 mi SE 15.0 mph 19.6 mph N/A   Overcast
4:15 AM 35.6 °F 26.6 °F 30.2 °F 81% 29.68 in 10.0 mi SE 13.8 mph - N/A   Overcast
4:35 AM 35.6 °F 25.5 °F 28.4 °F 75% 29.67 in 10.0 mi SE 17.3 mph 23.0 mph N/A   Overcast
4:55 AM 35.6 °F 25.9 °F 28.4 °F 75% 29.66 in 10.0 mi SE 16.1 mph 24.2 mph N/A   Overcast
5:15 AM 35.6 °F 25.2 °F 26.6 °F 70% 29.65 in 10.0 mi SE 18.4 mph 24.2 mph N/A   Overcast
5:35 AM 35.6 °F 26.2 °F 26.6 °F 70% 29.63 in 10.0 mi SSE 15.0 mph 23.0 mph N/A   Overcast
5:55 AM 35.6 °F 27.1 °F 26.6 °F 70% 29.63 in 10.0 mi SSE 12.7 mph - N/A   Overcast
6:15 AM 35.6 °F 27.1 °F 26.6 °F 70% 29.62 in 10.0 mi SSE 12.7 mph - N/A   Overcast
6:35 AM 35.6 °F 27.5 °F 26.6 °F 70% 29.61 in 10.0 mi SSE 11.5 mph 18.4 mph N/A   Overcast
6:55 AM 35.6 °F 26.2 °F 26.6 °F 70% 29.59 in 10.0 mi SSE 15.0 mph 20.7 mph N/A   Overcast
7:15 AM 35.6 °F 27.1 °F 30.2 °F 81% 29.58 in 10.0 mi SSE 12.7 mph - N/A Rain Light Rain
7:35 AM 33.8 °F 25.8 °F 32.0 °F 93% 29.56 in 10.0 mi SE 10.4 mph - N/A Rain Light Rain
7:55 AM 33.8 °F 25.8 °F 32.0 °F 93% 29.56 in 10.0 mi SSE 10.4 mph - N/A Rain Light Rain
8:15 AM 33.8 °F 25.8 °F 32.0 °F 93% 29.56 in 10.0 mi SSE 10.4 mph - N/A Rain Light Rain
8:35 AM 33.8 °F 26.4 °F 33.8 °F 100% 29.58 in 10.0 mi SSW 9.2 mph - N/A Rain Light Rain
8:55 AM 33.8 °F 27.0 °F 33.8 °F 100% 29.58 in 10.0 mi South 8.1 mph - N/A Rain Light Rain
9:15 AM 33.8 °F 27.0 °F 33.8 °F 100% 29.58 in 10.0 mi South 8.1 mph - N/A   Overcast
9:35 AM 33.8 °F 27.7 °F 33.8 °F 100% 29.58 in 5.0 mi South 6.9 mph - N/A   Scattered Clouds
9:55 AM 33.8 °F 29.6 °F 33.8 °F 100% 29.57 in 3.0 mi South 4.6 mph - N/A Rain Light Rain
10:15 AM 35.6 °F 31.7 °F 35.6 °F 100% 29.56 in 8.0 mi South 4.6 mph - N/A   Mostly Cloudy
10:35 AM 35.6 °F 28.6 °F 35.6 °F 100% 29.56 in 3.0 mi SSW 9.2 mph - N/A   Mostly Cloudy
10:55 AM 35.6 °F 29.9 °F 35.6 °F 100% 29.55 in 10.0 mi South 6.9 mph - N/A   Mostly Cloudy
11:15 AM 35.6 °F 29.9 °F 35.6 °F 100% 29.55 in 10.0 mi SW 6.9 mph - N/A   Overcast
11:35 AM 35.6 °F 29.2 °F 35.6 °F 100% 29.55 in 10.0 mi WSW 8.1 mph - N/A   Overcast
11:55 AM 37.4 °F 30.3 °F 37.4 °F 100% 29.55 in 10.0 mi WSW 10.4 mph - N/A   Overcast
12:15 PM 37.4 °F 30.8 °F 37.4 °F 100% 29.54 in 10.0 mi West 9.2 mph - N/A   Overcast
12:35 PM 37.4 °F 30.8 °F 37.4 °F 100% 29.53 in 10.0 mi West 9.2 mph - N/A   Overcast
12:55 PM 37.4 °F 32.1 °F 37.4 °F 100% 29.53 in 10.0 mi West 6.9 mph - N/A   Overcast
1:15 PM 37.4 °F 30.8 °F 37.4 °F 100% 29.53 in 10.0 mi WNW 9.2 mph - N/A   Overcast
1:35 PM 37.4 °F 29.8 °F 37.4 °F 100% 29.54 in 10.0 mi West 11.5 mph 16.1 mph N/A   Overcast
1:55 PM 37.4 °F 32.8 °F 37.4 °F 100% 29.54 in 10.0 mi West 5.8 mph - N/A   Overcast
2:15 PM 39.2 °F 33.0 °F 39.2 °F 100% 29.54 in 10.0 mi West 9.2 mph - N/A   Overcast
2:35 PM 39.2 °F 30.5 °F 39.2 °F 100% 29.54 in 10.0 mi WNW 16.1 mph 19.6 mph N/A   Overcast
2:55 PM 41.0 °F 32.5 °F 41.0 °F 100% 29.55 in 10.0 mi WNW 17.3 mph 23.0 mph N/A   Overcast
3:15 PM 41.0 °F 33.9 °F 41.0 °F 100% 29.56 in 10.0 mi NW 12.7 mph 23.0 mph N/A   Overcast
3:35 PM 41.0 °F 34.3 °F 41.0 °F 100% 29.56 in 10.0 mi WNW 11.5 mph 17.3 mph N/A   Overcast
3:55 PM 44.6 °F 39.2 °F 44.6 °F 100% 29.57 in 10.0 mi NW 10.4 mph 17.3 mph N/A   Mostly Cloudy
4:15 PM 44.6 °F 39.2 °F 44.6 °F 100% 29.57 in 10.0 mi NW 10.4 mph - N/A   Overcast
4:35 PM 44.6 °F 38.8 °F 41.0 °F 87% 29.57 in 10.0 mi WNW 11.5 mph 17.3 mph N/A   Overcast
4:55 PM 44.6 °F 38.8 °F 41.0 °F 87% 29.58 in 10.0 mi WNW 11.5 mph - N/A   Overcast
5:15 PM 44.6 °F 38.1 °F 41.0 °F 87% 29.58 in 10.0 mi WNW 13.8 mph 20.7 mph N/A   Overcast
5:35 PM 41.0 °F 33.5 °F 39.2 °F 93% 29.60 in 10.0 mi NW 13.8 mph 19.6 mph N/A   Overcast
5:55 PM 41.0 °F 33.1 °F 39.2 °F 93% 29.62 in 10.0 mi WNW 15.0 mph 23.0 mph N/A   Overcast
6:15 PM 39.2 °F 30.8 °F 39.2 °F 100% 29.63 in 10.0 mi NW 15.0 mph 24.2 mph N/A   Overcast
6:35 PM 39.2 °F 30.2 °F 39.2 °F 100% 29.64 in 10.0 mi NW 17.3 mph 24.2 mph N/A   Overcast
6:55 PM 39.2 °F 30.8 °F 39.2 °F 100% 29.64 in 10.0 mi NW 15.0 mph 27.6 mph N/A   Overcast
7:15 PM 37.4 °F 26.9 °F 37.4 °F 100% 29.66 in 10.0 mi NW 20.7 mph 29.9 mph N/A   Overcast
7:35 PM 35.6 °F 25.2 °F 35.6 °F 100% 29.67 in 10.0 mi WNW 18.4 mph 27.6 mph N/A   Overcast
7:55 PM 35.6 °F 25.2 °F 35.6 °F 100% 29.68 in 10.0 mi NW 18.4 mph 26.5 mph N/A   Overcast
8:15 PM 35.6 °F 26.2 °F 35.6 °F 100% 29.69 in 10.0 mi WNW 15.0 mph 25.3 mph N/A   Overcast
8:35 PM 35.6 °F 26.6 °F 35.6 °F 100% 29.70 in 10.0 mi WNW 13.8 mph 25.3 mph N/A   Overcast
8:55 PM 35.6 °F 26.6 °F 35.6 °F 100% 29.71 in 10.0 mi NW 13.8 mph 24.2 mph N/A   Overcast
9:15 PM 35.6 °F 25.9 °F 35.6 °F 100% 29.72 in 10.0 mi NW 16.1 mph 25.3 mph N/A   Overcast
9:35 PM 35.6 °F 25.5 °F 35.6 °F 100% 29.73 in 10.0 mi NW 17.3 mph 21.9 mph N/A   Overcast
9:55 PM 35.6 °F 25.2 °F 35.6 °F 100% 29.73 in 10.0 mi NW 18.4 mph 25.3 mph N/A   Overcast
10:15 PM 35.6 °F 24.2 °F 35.6 °F 100% 29.74 in 10.0 mi NW 21.9 mph 28.8 mph N/A   Overcast
10:35 PM 35.6 °F 25.2 °F 35.6 °F 100% 29.75 in 10.0 mi NW 18.4 mph 28.8 mph N/A   Overcast
10:55 PM 33.8 °F 22.2 °F 33.8 °F 100% 29.76 in 10.0 mi NW 20.7 mph 32.2 mph N/A   Overcast
11:15 PM 33.8 °F 21.6 °F 33.8 °F 100% 29.76 in 10.0 mi NW 23.0 mph 33.4 mph N/A   Overcast
11:35 PM 33.8 °F 21.9 °F 33.8 °F 100% 29.77 in 10.0 mi NW 21.9 mph 35.7 mph N/A   Overcast
11:55 PM 32.0 °F 19.8 °F 32.0 °F 100% 29.78 in 10.0 mi NW 20.7 mph 31.1 mph N/A   Overcast